createdAt,value
2022-12-04T00:02:25.132Z,30.60
2022-12-04T00:04:51.701Z,29.30
2022-12-04T00:07:18.320Z,28.90
2022-12-04T00:09:44.863Z,30.88
2022-12-04T00:12:11.526Z,27.42
2022-12-04T00:15:00.799Z,28.45
2022-12-04T00:17:24.692Z,25.85
2022-12-04T00:19:51.146Z,28.70
2022-12-04T00:22:17.686Z,24.73
2022-12-04T00:24:44.152Z,23.60
2022-12-04T00:27:10.694Z,22.30
2022-12-04T00:29:37.403Z,23.38
2022-12-04T00:32:03.886Z,25.67
2022-12-04T00:34:30.353Z,21.58
2022-12-04T00:36:56.856Z,22.08
2022-12-04T00:39:23.328Z,21.55
2022-12-04T00:41:49.785Z,19.95
2022-12-04T00:44:16.233Z,21.55
2022-12-04T00:46:42.860Z,21.30
2022-12-04T00:49:09.312Z,21.10
2022-12-04T00:51:35.782Z,20.33
2022-12-04T00:54:02.325Z,21.98
2022-12-04T00:56:29.469Z,21.02
2022-12-04T00:58:57.785Z,19.27
2022-12-04T01:01:24.586Z,19.95
2022-12-04T01:03:51.323Z,18.95
2022-12-04T01:06:25.713Z,21.80
2022-12-04T01:08:52.738Z,16.88
2022-12-04T01:11:19.352Z,17.95
2022-12-04T01:13:46.109Z,19.50
2022-12-04T01:16:20.196Z,19.10
2022-12-04T01:18:47.041Z,17.67
2022-12-04T01:21:13.530Z,17.52
2022-12-04T01:23:40.010Z,18.60
2022-12-04T01:26:06.539Z,18.05
2022-12-04T01:28:32.978Z,16.42
2022-12-04T01:31:03.221Z,15.45
2022-12-04T01:33:29.809Z,14.60
2022-12-04T01:35:57.156Z,14.88
2022-12-04T01:38:24.337Z,17.98
2022-12-04T01:40:50.862Z,15.65
2022-12-04T01:43:17.849Z,15.73
2022-12-04T01:45:45.675Z,14.70
2022-12-04T01:48:25.116Z,15.40
2022-12-04T01:50:54.102Z,15.38
2022-12-04T01:53:20.556Z,13.93
2022-12-04T01:55:47.374Z,15.68
2022-12-04T01:58:13.881Z,13.23
2022-12-04T02:00:40.367Z,13.15
2022-12-04T02:03:06.902Z,16.25
2022-12-04T02:05:33.448Z,14.40
2022-12-04T02:08:00.966Z,12.90
2022-12-04T02:10:44.888Z,13.90
2022-12-04T02:13:19.771Z,13.80
2022-12-04T02:16:05.596Z,12.15
2022-12-04T02:18:41.113Z,12.90
2022-12-04T02:21:33.741Z,12.23
2022-12-04T02:24:22.498Z,13.00
2022-12-04T02:26:51.868Z,11.65
2022-12-04T02:29:46.384Z,11.73
2022-12-04T02:32:19.888Z,11.50
2022-12-04T02:34:55.525Z,11.25
2022-12-04T02:37:32.083Z,10.63
2022-12-04T02:40:07.811Z,10.57
2022-12-04T02:43:02.177Z,11.05
2022-12-04T02:45:37.267Z,11.40
2022-12-04T02:48:04.348Z,9.93
2022-12-04T02:50:30.899Z,11.93
2022-12-04T02:53:09.526Z,11.23
2022-12-04T02:55:40.315Z,10.18
2022-12-04T02:58:13.241Z,12.23
2022-12-04T03:00:40.075Z,10.73
2022-12-04T03:03:08.575Z,9.75
2022-12-04T03:05:51.064Z,10.07
2022-12-04T03:08:20.228Z,8.80
2022-12-04T03:10:52.273Z,10.15
2022-12-04T03:13:24.128Z,11.18
2022-12-04T03:15:53.672Z,9.25
2022-12-04T03:18:22.665Z,10.13
2022-12-04T03:20:50.348Z,10.70
2022-12-04T03:23:22.327Z,10.15
2022-12-04T03:25:57.511Z,8.63
2022-12-04T03:28:34.417Z,9.43
2022-12-04T03:31:04.787Z,9.93
2022-12-04T03:33:40.302Z,8.85
2022-12-04T03:36:27.918Z,7.80
2022-12-04T03:39:00.596Z,8.25
2022-12-04T03:41:57.251Z,9.63
2022-12-04T03:44:33.197Z,8.35
2022-12-04T03:47:04.693Z,10.20
2022-12-04T03:49:33.273Z,9.25
2022-12-04T03:52:07.638Z,9.35
2022-12-04T03:54:37.128Z,8.27
2022-12-04T03:57:12.887Z,7.95
2022-12-04T03:59:42.680Z,9.25
2022-12-04T04:02:12.435Z,8.55
2022-12-04T04:04:40.614Z,8.70
2022-12-04T04:07:44.382Z,7.95
2022-12-04T04:10:14.047Z,9.30
2022-12-04T04:12:44.077Z,9.07
2022-12-04T04:15:32.138Z,7.25
2022-12-04T04:18:17.479Z,7.80
2022-12-04T04:21:04.596Z,6.88
2022-12-04T04:23:52.360Z,9.52
2022-12-04T04:26:18.919Z,8.20
2022-12-04T04:28:45.782Z,8.45
2022-12-04T04:31:36.840Z,7.32
2022-12-04T04:34:24.669Z,7.75
2022-12-04T04:37:03.414Z,7.30
2022-12-04T04:39:32.091Z,8.48
2022-12-04T04:42:26.610Z,8.32
2022-12-04T04:45:05.697Z,8.98
2022-12-04T04:47:43.725Z,6.82
2022-12-04T04:50:11.039Z,7.00
2022-12-04T04:52:38.472Z,6.97
2022-12-04T04:55:05.241Z,6.97
2022-12-04T04:57:34.232Z,7.28
2022-12-04T05:00:01.026Z,6.78
2022-12-04T05:02:27.695Z,6.65
2022-12-04T05:04:54.731Z,6.70
2022-12-04T05:07:21.197Z,7.30
2022-12-04T05:09:47.644Z,6.70
2022-12-04T05:12:14.106Z,6.90
2022-12-04T05:14:40.582Z,7.00
2022-12-04T05:17:12.332Z,6.63
2022-12-04T05:19:55.030Z,6.65
2022-12-04T05:22:27.530Z,6.97
2022-12-04T05:24:54.074Z,6.60
2022-12-04T05:27:21.324Z,8.23
2022-12-04T05:29:47.789Z,7.15
2022-12-04T05:32:14.261Z,5.93
2022-12-04T05:34:40.791Z,6.78
2022-12-04T05:37:07.254Z,7.13
2022-12-04T05:39:34.308Z,6.35
2022-12-04T05:42:00.994Z,7.22
2022-12-04T05:44:27.484Z,6.03
2022-12-04T05:46:54.431Z,6.05
2022-12-04T05:49:20.921Z,5.93
2022-12-04T05:51:47.372Z,5.55
2022-12-04T05:54:13.817Z,5.43
2022-12-04T05:56:40.259Z,5.80
2022-12-04T05:59:06.709Z,5.28
2022-12-04T06:01:33.236Z,5.22
2022-12-04T06:03:59.727Z,6.10
2022-12-04T06:06:26.303Z,6.07
2022-12-04T06:08:54.986Z,6.38
2022-12-04T06:11:26.786Z,5.75
2022-12-04T06:13:53.274Z,5.32
2022-12-04T06:16:22.143Z,6.03
2022-12-04T06:18:50.195Z,5.53
2022-12-04T06:21:16.729Z,5.35
2022-12-04T06:23:43.189Z,6.03
2022-12-04T06:26:09.661Z,6.28
2022-12-04T06:28:36.366Z,5.35
2022-12-04T06:31:04.026Z,5.85
2022-12-04T06:33:30.523Z,5.60
2022-12-04T06:36:11.406Z,5.45
2022-12-04T06:38:38.192Z,7.15
2022-12-04T06:41:06.063Z,5.93
2022-12-04T06:43:32.647Z,4.95
2022-12-04T06:46:06.970Z,5.28
2022-12-04T06:48:33.543Z,5.80
2022-12-04T06:51:01.106Z,5.25
2022-12-04T06:53:30.172Z,6.70
2022-12-04T06:56:00.523Z,5.13
2022-12-04T06:58:27.086Z,5.40
2022-12-04T07:00:53.921Z,4.90
2022-12-04T07:03:20.474Z,5.85
2022-12-04T07:05:46.945Z,5.03
2022-12-04T07:08:14.068Z,7.07
2022-12-04T07:10:40.525Z,6.57
2022-12-04T07:13:07.049Z,5.50
2022-12-04T07:15:34.503Z,5.88
2022-12-04T07:18:01.045Z,5.75
2022-12-04T07:20:27.569Z,5.45
2022-12-04T07:22:54.038Z,5.57
2022-12-04T07:25:20.490Z,4.88
2022-12-04T07:27:46.986Z,5.45
2022-12-04T07:30:15.868Z,5.95
2022-12-04T07:32:42.605Z,5.88
2022-12-04T07:35:09.204Z,5.68
2022-12-04T07:37:35.981Z,5.70
2022-12-04T07:40:03.531Z,5.07
2022-12-04T07:42:30.003Z,6.10
2022-12-04T07:44:56.452Z,5.53
2022-12-04T07:47:22.902Z,5.38
2022-12-04T07:49:49.412Z,5.90
2022-12-04T07:52:16.109Z,5.57
2022-12-04T07:54:42.559Z,6.35
2022-12-04T07:57:09.013Z,6.22
2022-12-04T07:59:35.456Z,5.20
2022-12-04T08:02:01.949Z,6.15
2022-12-04T08:04:28.845Z,5.90
2022-12-04T08:06:55.619Z,6.85
2022-12-04T08:09:22.246Z,6.30
2022-12-04T08:11:48.692Z,6.63
2022-12-04T08:14:15.242Z,4.82
2022-12-04T08:16:41.733Z,6.80
2022-12-04T08:19:08.210Z,6.30
2022-12-04T08:21:34.738Z,5.68
2022-12-04T08:24:01.265Z,7.18
2022-12-04T08:26:28.929Z,6.47
2022-12-04T08:28:56.215Z,6.07
2022-12-04T08:31:27.457Z,7.70
2022-12-04T08:33:54.746Z,6.78
2022-12-04T08:36:21.699Z,6.97
2022-12-04T08:38:48.589Z,6.38
2022-12-04T08:41:16.114Z,6.22
2022-12-04T08:43:42.571Z,5.82
2022-12-04T08:46:10.840Z,6.25
2022-12-04T08:48:37.356Z,6.70
2022-12-04T08:51:04.360Z,8.82
2022-12-04T08:53:31.226Z,6.82
2022-12-04T08:55:57.677Z,6.18
2022-12-04T08:58:24.146Z,6.28
2022-12-04T09:00:50.596Z,6.05
2022-12-04T09:03:18.271Z,6.82
2022-12-04T09:05:47.870Z,7.00
2022-12-04T09:08:15.242Z,7.45
2022-12-04T09:10:42.056Z,7.40
2022-12-04T09:13:08.615Z,6.60
2022-12-04T09:15:35.144Z,7.70
2022-12-04T09:18:01.624Z,8.48
2022-12-04T09:20:28.583Z,9.88
2022-12-04T09:23:04.125Z,8.25
2022-12-04T09:25:31.847Z,8.75
2022-12-04T09:27:58.309Z,7.53
2022-12-04T09:30:24.763Z,8.70
2022-12-04T09:32:51.314Z,7.28
2022-12-04T09:35:17.775Z,9.88
2022-12-04T09:37:44.225Z,8.93
2022-12-04T09:40:19.782Z,9.77
2022-12-04T09:42:49.837Z,10.73
2022-12-04T09:45:21.064Z,7.18
2022-12-04T09:47:49.005Z,9.10
2022-12-04T09:50:20.912Z,8.65
2022-12-04T09:53:03.516Z,8.88
2022-12-04T09:55:36.348Z,8.18
2022-12-04T09:58:04.837Z,8.05
2022-12-04T10:00:42.059Z,10.25
2022-12-04T10:03:16.552Z,9.90
2022-12-04T10:06:03.984Z,11.20
2022-12-04T10:08:44.125Z,11.93
2022-12-04T10:11:41.400Z,9.27
2022-12-04T10:14:30.378Z,11.10
2022-12-04T10:17:21.643Z,10.70
2022-12-04T10:20:09.116Z,8.55
2022-12-04T10:22:41.750Z,8.80
2022-12-04T10:25:24.229Z,8.60
2022-12-04T10:27:53.970Z,11.20
2022-12-04T10:30:23.604Z,9.50
2022-12-04T10:33:11.893Z,11.80
2022-12-04T10:35:38.673Z,10.70
2022-12-04T10:38:11.318Z,9.77
2022-12-04T10:40:41.691Z,10.25
2022-12-04T10:43:16.849Z,12.18
2022-12-04T10:45:43.353Z,11.40
2022-12-04T10:48:29.271Z,12.10
2022-12-04T10:50:55.860Z,10.48
2022-12-04T10:53:24.682Z,11.35
2022-12-04T10:55:51.131Z,11.02
2022-12-04T10:58:18.086Z,11.32
2022-12-04T11:00:45.769Z,10.38
2022-12-04T11:03:25.691Z,12.10
2022-12-04T11:06:05.502Z,10.88
2022-12-04T11:08:36.529Z,10.95
2022-12-04T11:11:11.413Z,13.35
2022-12-04T11:13:38.133Z,11.95
2022-12-04T11:16:06.498Z,11.43
2022-12-04T11:18:46.242Z,11.73
2022-12-04T11:21:17.252Z,11.48
2022-12-04T11:23:48.536Z,14.65
2022-12-04T11:26:15.374Z,11.98
2022-12-04T11:28:45.841Z,12.13
2022-12-04T11:31:17.052Z,11.23
2022-12-04T11:33:46.187Z,11.18
2022-12-04T11:36:32.027Z,11.63
2022-12-04T11:39:15.555Z,12.73
2022-12-04T11:41:42.112Z,11.90
2022-12-04T11:44:28.377Z,12.18
2022-12-04T11:46:56.510Z,13.07
2022-12-04T11:49:23.939Z,12.98
2022-12-04T11:52:12.317Z,11.82
2022-12-04T11:54:51.753Z,12.35
2022-12-04T11:57:32.031Z,11.30
2022-12-04T12:00:15.115Z,12.05
2022-12-04T12:03:10.900Z,10.48
2022-12-04T12:05:46.284Z,12.68
2022-12-04T12:08:18.726Z,10.35
2022-12-04T12:11:11.171Z,12.77
2022-12-04T12:13:55.032Z,13.18
2022-12-04T12:16:36.645Z,12.75
2022-12-04T12:19:18.204Z,11.48
2022-12-04T12:22:25.929Z,10.82
2022-12-04T12:25:03.956Z,10.50
2022-12-04T12:27:34.983Z,13.88
2022-12-04T12:30:23.451Z,19.75
2022-12-04T12:32:58.904Z,12.15
2022-12-04T12:35:39.651Z,12.65
2022-12-04T12:38:16.245Z,11.45
2022-12-04T12:40:50.082Z,14.93
2022-12-04T12:43:26.280Z,14.95
2022-12-04T12:45:54.021Z,12.13
2022-12-04T12:48:44.920Z,9.93
2022-12-04T12:51:32.207Z,12.30
2022-12-04T12:54:09.063Z,10.80
2022-12-04T12:56:38.432Z,10.70
2022-12-04T12:59:06.021Z,10.80
2022-12-04T13:01:46.191Z,13.02
2022-12-04T13:04:16.006Z,11.45
2022-12-04T13:06:43.166Z,10.88
2022-12-04T13:09:25.575Z,11.23
2022-12-04T13:11:54.133Z,9.70
2022-12-04T13:14:20.790Z,11.25
2022-12-04T13:16:51.270Z,12.23
2022-12-04T13:19:29.831Z,10.52
2022-12-04T13:22:15.664Z,9.75
2022-12-04T13:25:04.687Z,10.45
2022-12-04T13:27:50.261Z,10.38
2022-12-04T13:30:49.597Z,11.30
2022-12-04T13:33:18.555Z,11.27
2022-12-04T13:36:03.325Z,9.65
2022-12-04T13:38:49.915Z,9.23
2022-12-04T13:41:21.847Z,10.77
2022-12-04T13:43:49.222Z,8.60
2022-12-04T13:46:34.853Z,10.18
2022-12-04T13:49:31.163Z,7.82
2022-12-04T13:51:58.601Z,8.70
2022-12-04T13:54:26.232Z,9.68
2022-12-04T13:56:55.501Z,9.23
2022-12-04T13:59:35.207Z,9.10
2022-12-04T14:02:21.723Z,9.02
2022-12-04T14:05:06.579Z,8.57
2022-12-04T14:07:43.211Z,9.80
2022-12-04T14:10:15.786Z,8.73
2022-12-04T14:12:48.954Z,10.32
2022-12-04T14:15:22.169Z,9.23
2022-12-04T14:18:03.431Z,9.95
2022-12-04T14:20:31.952Z,9.02
2022-12-04T14:23:33.403Z,10.27
2022-12-04T14:26:00.105Z,8.25
2022-12-04T14:28:37.321Z,8.73
2022-12-04T14:31:14.326Z,8.05
2022-12-04T14:33:55.693Z,9.52
2022-12-04T14:36:31.397Z,9.65
2022-12-04T14:39:22.855Z,8.25
2022-12-04T14:41:49.334Z,8.63
2022-12-04T14:44:34.077Z,8.82
2022-12-04T14:47:19.258Z,8.18
2022-12-04T14:50:02.950Z,8.18
2022-12-04T14:52:32.992Z,8.02
2022-12-04T14:55:07.354Z,8.88
2022-12-04T14:58:21.729Z,8.15
2022-12-04T15:00:54.955Z,10.05
2022-12-04T15:03:21.949Z,7.97
2022-12-04T15:05:49.688Z,8.90
2022-12-04T15:08:16.415Z,9.73
2022-12-04T15:11:07.826Z,7.57
2022-12-04T15:13:37.247Z,7.47
2022-12-04T15:16:16.715Z,7.68
2022-12-04T15:18:53.577Z,7.68
2022-12-04T15:21:20.028Z,8.43
2022-12-04T15:23:46.483Z,9.38
2022-12-04T15:26:20.956Z,9.57
2022-12-04T15:29:03.429Z,9.95
2022-12-04T15:31:32.359Z,8.15
2022-12-04T15:34:01.494Z,7.57
2022-12-04T15:36:30.507Z,9.18
2022-12-04T15:38:56.965Z,7.45
2022-12-04T15:41:29.311Z,8.25
2022-12-04T15:43:55.770Z,7.25
2022-12-04T15:46:23.904Z,10.43
2022-12-04T15:48:50.443Z,8.73
2022-12-04T15:51:18.924Z,10.02
2022-12-04T15:53:45.861Z,10.05
2022-12-04T15:56:21.808Z,11.82
2022-12-04T15:58:59.401Z,9.43
2022-12-04T16:01:25.918Z,11.98
2022-12-04T16:03:53.309Z,18.10
2022-12-04T16:06:23.191Z,15.55
2022-12-04T16:08:57.362Z,11.35
2022-12-04T16:11:28.740Z,9.20
2022-12-04T16:14:07.999Z,14.00
2022-12-04T16:16:37.437Z,11.57
2022-12-04T16:19:27.670Z,9.05
2022-12-04T16:21:54.181Z,10.68
2022-12-04T16:24:21.547Z,9.50
2022-12-04T16:26:50.105Z,11.68
2022-12-04T16:29:17.614Z,12.50
2022-12-04T16:31:44.155Z,11.00
2022-12-04T16:34:13.830Z,9.57
2022-12-04T16:36:40.597Z,10.82
2022-12-04T16:39:07.116Z,10.35
2022-12-04T16:41:33.833Z,10.73
2022-12-04T16:44:00.532Z,9.18
2022-12-04T16:46:28.131Z,9.68
2022-12-04T16:48:54.896Z,8.82
2022-12-04T16:51:25.378Z,10.57
2022-12-04T16:53:52.012Z,11.82
2022-12-04T16:56:18.949Z,13.02
2022-12-04T16:58:45.387Z,18.13
2022-12-04T17:01:24.742Z,18.55
2022-12-04T17:03:51.347Z,22.52
2022-12-04T17:06:18.221Z,29.13
2022-12-04T17:08:44.795Z,23.85
2022-12-04T17:11:15.263Z,25.98
2022-12-04T17:13:41.893Z,25.58
2022-12-04T17:16:08.784Z,23.70
2022-12-04T17:18:35.298Z,24.65
2022-12-04T17:21:08.511Z,24.23
2022-12-04T17:23:34.989Z,25.03
2022-12-04T17:26:05.555Z,21.27
2022-12-04T17:28:32.111Z,21.73
2022-12-04T17:30:58.743Z,21.67
2022-12-04T17:33:25.677Z,18.20
2022-12-04T17:35:53.968Z,19.85
2022-12-04T17:38:20.509Z,19.30
2022-12-04T17:40:58.048Z,17.17
2022-12-04T17:43:24.609Z,18.27
2022-12-04T17:45:51.143Z,18.17
2022-12-04T17:48:17.598Z,14.70
2022-12-04T17:50:44.109Z,14.77
2022-12-04T17:53:10.616Z,15.40
2022-12-04T17:55:37.126Z,16.73
2022-12-04T17:58:03.760Z,16.48
2022-12-04T18:00:30.381Z,18.73
2022-12-04T18:02:57.022Z,16.85
2022-12-04T18:05:23.545Z,14.05
2022-12-04T18:07:50.146Z,14.60
2022-12-04T18:10:16.688Z,14.55
2022-12-04T18:12:43.575Z,13.63
2022-12-04T18:15:10.615Z,14.20
2022-12-04T18:17:37.125Z,13.27
2022-12-04T18:20:05.333Z,15.93
2022-12-04T18:22:32.274Z,14.88
2022-12-04T18:24:58.963Z,20.27
2022-12-04T18:27:25.620Z,26.42
2022-12-04T18:29:52.164Z,38.75
2022-12-04T18:32:18.818Z,44.38
2022-12-04T18:34:45.667Z,40.10
2022-12-04T18:37:12.203Z,44.38
2022-12-04T18:39:38.664Z,38.97
2022-12-04T18:42:05.261Z,39.53
2022-12-04T18:44:31.807Z,43.05
2022-12-04T18:46:58.472Z,41.28
2022-12-04T18:49:25.172Z,39.65
2022-12-04T18:51:51.834Z,37.15
2022-12-04T18:54:19.930Z,35.15
2022-12-04T18:56:46.600Z,32.65
2022-12-04T18:59:21.246Z,29.45
2022-12-04T19:01:49.946Z,28.40
2022-12-04T19:04:18.346Z,27.98
2022-12-04T19:06:46.718Z,29.25
2022-12-04T19:09:15.794Z,30.65
2022-12-04T19:11:42.356Z,29.13
2022-12-04T19:14:17.682Z,28.45
2022-12-04T19:17:04.858Z,31.38
2022-12-04T19:19:31.916Z,27.83
2022-12-04T19:21:59.018Z,26.25
2022-12-04T19:24:25.533Z,30.92
2022-12-04T19:26:53.308Z,52.70
2022-12-04T19:29:19.717Z,65.03
2022-12-04T19:31:46.168Z,69.75
2022-12-04T19:34:12.602Z,65.53
2022-12-04T19:36:40.269Z,69.30
2022-12-04T19:39:09.255Z,61.90
2022-12-04T19:41:37.216Z,59.95
2022-12-04T19:44:19.982Z,59.97
2022-12-04T19:46:50.499Z,63.85
2022-12-04T19:49:16.914Z,61.78
2022-12-04T19:51:43.600Z,54.25
2022-12-04T19:54:12.776Z,59.13
2022-12-04T19:56:39.235Z,54.35
2022-12-04T19:59:06.762Z,56.22
2022-12-04T20:01:33.553Z,55.38
2022-12-04T20:04:02.476Z,56.53
2022-12-04T20:06:29.250Z,51.60
2022-12-04T20:08:57.635Z,55.90
2022-12-04T20:11:24.113Z,53.78
2022-12-04T20:13:53.878Z,55.97
2022-12-04T20:16:20.544Z,53.08
2022-12-04T20:18:47.101Z,50.22
2022-12-04T20:21:13.666Z,47.60
2022-12-04T20:23:49.431Z,52.08
2022-12-04T20:26:23.393Z,44.72
2022-12-04T20:28:49.924Z,45.60
2022-12-04T20:31:20.873Z,42.28
2022-12-04T20:33:48.133Z,44.28
2022-12-04T20:36:15.639Z,44.45
2022-12-04T20:38:42.321Z,42.65
2022-12-04T20:41:10.190Z,40.58
2022-12-04T20:43:36.774Z,41.72
2022-12-04T20:46:13.589Z,35.67
2022-12-04T20:48:40.094Z,36.65
2022-12-04T20:51:06.666Z,39.70
2022-12-04T20:53:33.139Z,34.75
2022-12-04T20:55:59.575Z,42.33
2022-12-04T20:58:26.051Z,30.65
2022-12-04T21:00:52.537Z,29.48
2022-12-04T21:03:19.040Z,28.05
2022-12-04T21:05:49.789Z,28.15
2022-12-04T21:08:36.200Z,31.73
2022-12-04T21:11:02.979Z,29.08
2022-12-04T21:13:48.127Z,27.80
2022-12-04T21:16:14.843Z,28.17
2022-12-04T21:18:41.350Z,28.23
2022-12-04T21:21:07.803Z,27.08
2022-12-04T21:23:35.864Z,25.83
2022-12-04T21:26:02.367Z,24.35
2022-12-04T21:28:28.835Z,20.75
2022-12-04T21:31:03.438Z,22.38
2022-12-04T21:33:31.554Z,22.50
2022-12-04T21:36:06.399Z,22.60
2022-12-04T21:38:33.951Z,19.55
2022-12-04T21:41:00.562Z,24.02
2022-12-04T21:43:28.724Z,21.85
2022-12-04T21:46:09.048Z,21.33
2022-12-04T21:48:36.309Z,21.02
2022-12-04T21:51:13.235Z,20.20
2022-12-04T21:53:54.534Z,17.77
2022-12-04T21:56:24.336Z,17.48
2022-12-04T21:58:51.383Z,18.38
2022-12-04T22:01:18.569Z,17.10
2022-12-04T22:03:45.123Z,17.73
2022-12-04T22:06:11.586Z,13.93
2022-12-04T22:08:39.393Z,19.23
2022-12-04T22:11:06.834Z,15.73
2022-12-04T22:13:33.485Z,19.05
2022-12-04T22:16:06.120Z,13.23
2022-12-04T22:18:33.744Z,15.57
2022-12-04T22:21:00.892Z,14.57
2022-12-04T22:23:27.381Z,13.77
2022-12-04T22:25:53.828Z,16.45
2022-12-04T22:28:20.315Z,15.27
2022-12-04T22:30:46.984Z,14.98
2022-12-04T22:33:13.452Z,13.18
2022-12-04T22:35:39.901Z,12.18
2022-12-04T22:38:06.364Z,13.07
2022-12-04T22:40:32.992Z,12.38
2022-12-04T22:42:59.437Z,13.50
2022-12-04T22:45:25.886Z,11.13
2022-12-04T22:47:52.404Z,11.18
2022-12-04T22:50:18.953Z,12.23
2022-12-04T22:52:45.474Z,14.15
2022-12-04T22:55:11.922Z,12.60
2022-12-04T22:57:38.384Z,10.50
2022-12-04T23:00:05.778Z,13.02
2022-12-04T23:02:32.890Z,11.30
2022-12-04T23:04:59.393Z,10.80
2022-12-04T23:07:25.894Z,10.18
2022-12-04T23:09:52.689Z,10.65
2022-12-04T23:12:19.384Z,10.40
2022-12-04T23:14:45.834Z,10.45
2022-12-04T23:17:12.286Z,9.63
2022-12-04T23:19:38.757Z,9.18
2022-12-04T23:22:05.218Z,9.98
2022-12-04T23:24:31.716Z,10.38
2022-12-04T23:26:58.226Z,10.52
2022-12-04T23:32:11.207Z,9.13
2022-12-04T23:34:38.125Z,9.75
2022-12-04T23:37:04.584Z,10.05
2022-12-04T23:39:31.045Z,9.18
2022-12-04T23:41:57.506Z,8.13
2022-12-04T23:44:23.961Z,9.18
2022-12-04T23:46:50.484Z,7.95
2022-12-04T23:49:16.975Z,8.23
2022-12-04T23:51:43.435Z,8.27
2022-12-04T23:54:09.880Z,8.75
2022-12-04T23:56:36.324Z,8.98
2022-12-04T23:59:02.785Z,8.07
